sensor_id;sensor_type;location;lat;lon;timestamp;P1;durP1;ratioP1;P2;durP2;ratioP2
22557;SDS011;11445;53.816;8.902;2023-12-04T00:00:29;49.83;;;21.38;;
22557;SDS011;11445;53.816;8.902;2023-12-04T00:02:56;45.15;;;20.95;;
22557;SDS011;11445;53.816;8.902;2023-12-04T00:05:24;48.03;;;20.70;;
22557;SDS011;11445;53.816;8.902;2023-12-04T00:07:51;43.60;;;19.83;;
22557;SDS011;11445;53.816;8.902;2023-12-04T00:10:17;48.20;;;20.92;;
22557;SDS011;11445;53.816;8.902;2023-12-04T00:12:44;47.92;;;20.13;;
22557;SDS011;11445;53.816;8.902;2023-12-04T00:15:11;47.28;;;20.88;;
22557;SDS011;11445;53.816;8.902;2023-12-04T00:17:38;51.05;;;21.95;;
22557;SDS011;11445;53.816;8.902;2023-12-04T00:20:05;42.28;;;20.13;;
22557;SDS011;11445;53.816;8.902;2023-12-04T00:22:35;51.47;;;20.33;;
22557;SDS011;11445;53.816;8.902;2023-12-04T00:25:02;48.10;;;21.15;;
22557;SDS011;11445;53.816;8.902;2023-12-04T00:27:29;48.38;;;20.27;;
22557;SDS011;11445;53.816;8.902;2023-12-04T00:29:56;50.15;;;20.88;;
22557;SDS011;11445;53.816;8.902;2023-12-04T00:32:23;47.00;;;20.98;;
22557;SDS011;11445;53.816;8.902;2023-12-04T00:34:50;47.22;;;20.02;;
22557;SDS011;11445;53.816;8.902;2023-12-04T00:37:16;51.53;;;22.13;;
22557;SDS011;11445;53.816;8.902;2023-12-04T00:39:45;46.83;;;20.05;;
22557;SDS011;11445;53.816;8.902;2023-12-04T00:42:11;47.78;;;19.25;;
22557;SDS011;11445;53.816;8.902;2023-12-04T00:44:38;48.97;;;19.77;;
22557;SDS011;11445;53.816;8.902;2023-12-04T00:47:05;44.67;;;20.48;;
22557;SDS011;11445;53.816;8.902;2023-12-04T00:49:32;42.40;;;20.67;;
22557;SDS011;11445;53.816;8.902;2023-12-04T00:51:59;37.05;;;17.25;;
22557;SDS011;11445;53.816;8.902;2023-12-04T00:54:25;41.95;;;19.35;;
22557;SDS011;11445;53.816;8.902;2023-12-04T00:56:53;42.42;;;19.10;;
22557;SDS011;11445;53.816;8.902;2023-12-04T00:59:20;42.67;;;19.23;;
22557;SDS011;11445;53.816;8.902;2023-12-04T01:01:47;44.95;;;18.65;;
22557;SDS011;11445;53.816;8.902;2023-12-04T01:04:14;46.00;;;20.15;;
22557;SDS011;11445;53.816;8.902;2023-12-04T01:06:40;43.95;;;19.88;;
22557;SDS011;11445;53.816;8.902;2023-12-04T01:09:07;41.92;;;18.48;;
22557;SDS011;11445;53.816;8.902;2023-12-04T01:11:34;45.25;;;19.55;;
22557;SDS011;11445;53.816;8.902;2023-12-04T01:14:03;47.97;;;20.88;;
22557;SDS011;11445;53.816;8.902;2023-12-04T01:16:30;46.28;;;18.85;;
22557;SDS011;11445;53.816;8.902;2023-12-04T01:18:56;42.30;;;19.98;;
22557;SDS011;11445;53.816;8.902;2023-12-04T01:21:23;40.63;;;18.65;;
22557;SDS011;11445;53.816;8.902;2023-12-04T01:23:50;39.03;;;19.27;;
22557;SDS011;11445;53.816;8.902;2023-12-04T01:26:17;44.38;;;20.13;;
22557;SDS011;11445;53.816;8.902;2023-12-04T01:28:44;44.35;;;19.92;;
22557;SDS011;11445;53.816;8.902;2023-12-04T01:31:12;41.35;;;18.27;;
22557;SDS011;11445;53.816;8.902;2023-12-04T01:33:39;44.47;;;20.23;;
22557;SDS011;11445;53.816;8.902;2023-12-04T01:36:06;46.00;;;19.65;;
22557;SDS011;11445;53.816;8.902;2023-12-04T01:38:33;37.40;;;17.90;;
22557;SDS011;11445;53.816;8.902;2023-12-04T01:41:00;39.50;;;18.88;;
22557;SDS011;11445;53.816;8.902;2023-12-04T01:43:27;41.10;;;18.88;;
22557;SDS011;11445;53.816;8.902;2023-12-04T01:45:54;45.30;;;19.20;;
22557;SDS011;11445;53.816;8.902;2023-12-04T01:48:24;38.88;;;18.38;;
22557;SDS011;11445;53.816;8.902;2023-12-04T01:50:51;40.72;;;18.85;;
22557;SDS011;11445;53.816;8.902;2023-12-04T01:53:18;40.45;;;18.33;;
22557;SDS011;11445;53.816;8.902;2023-12-04T01:55:45;35.75;;;17.52;;
22557;SDS011;11445;53.816;8.902;2023-12-04T01:58:12;39.97;;;18.00;;
22557;SDS011;11445;53.816;8.902;2023-12-04T02:00:39;41.38;;;18.60;;
22557;SDS011;11445;53.816;8.902;2023-12-04T02:03:06;38.63;;;17.98;;
22557;SDS011;11445;53.816;8.902;2023-12-04T02:05:35;38.38;;;17.67;;
22557;SDS011;11445;53.816;8.902;2023-12-04T02:08:03;44.65;;;18.67;;
22557;SDS011;11445;53.816;8.902;2023-12-04T02:10:31;37.08;;;17.15;;
22557;SDS011;11445;53.816;8.902;2023-12-04T02:12:58;38.75;;;17.88;;
22557;SDS011;11445;53.816;8.902;2023-12-04T02:15:23;38.58;;;17.05;;
22557;SDS011;11445;53.816;8.902;2023-12-04T02:17:50;43.70;;;18.92;;
22557;SDS011;11445;53.816;8.902;2023-12-04T02:20:17;35.90;;;17.63;;
22557;SDS011;11445;53.816;8.902;2023-12-04T02:22:45;38.65;;;17.10;;
22557;SDS011;11445;53.816;8.902;2023-12-04T02:25:14;32.63;;;16.38;;
22557;SDS011;11445;53.816;8.902;2023-12-04T02:27:43;40.42;;;18.38;;
22557;SDS011;11445;53.816;8.902;2023-12-04T02:30:15;36.70;;;16.90;;
22557;SDS011;11445;53.816;8.902;2023-12-04T02:32:45;38.15;;;18.05;;
22557;SDS011;11445;53.816;8.902;2023-12-04T02:35:13;39.67;;;17.70;;
22557;SDS011;11445;53.816;8.902;2023-12-04T02:37:42;37.05;;;17.08;;
22557;SDS011;11445;53.816;8.902;2023-12-04T02:40:10;37.90;;;17.70;;
22557;SDS011;11445;53.816;8.902;2023-12-04T02:42:40;40.83;;;19.13;;
22557;SDS011;11445;53.816;8.902;2023-12-04T02:45:07;38.67;;;18.50;;
22557;SDS011;11445;53.816;8.902;2023-12-04T02:47:34;39.00;;;17.17;;
22557;SDS011;11445;53.816;8.902;2023-12-04T02:50:01;37.70;;;17.85;;
22557;SDS011;11445;53.816;8.902;2023-12-04T02:52:28;40.20;;;17.88;;
22557;SDS011;11445;53.816;8.902;2023-12-04T02:54:55;36.08;;;17.25;;
22557;SDS011;11445;53.816;8.902;2023-12-04T02:57:22;33.28;;;16.48;;
22557;SDS011;11445;53.816;8.902;2023-12-04T02:59:50;33.75;;;17.05;;
22557;SDS011;11445;53.816;8.902;2023-12-04T03:02:17;35.63;;;17.35;;
22557;SDS011;11445;53.816;8.902;2023-12-04T03:04:44;38.33;;;17.20;;
22557;SDS011;11445;53.816;8.902;2023-12-04T03:07:11;38.42;;;17.42;;
22557;SDS011;11445;53.816;8.902;2023-12-04T03:09:38;36.17;;;17.52;;
22557;SDS011;11445;53.816;8.902;2023-12-04T03:12:05;35.20;;;16.83;;
22557;SDS011;11445;53.816;8.902;2023-12-04T03:14:32;35.25;;;17.48;;
22557;SDS011;11445;53.816;8.902;2023-12-04T03:17:00;35.92;;;16.27;;
22557;SDS011;11445;53.816;8.902;2023-12-04T03:19:27;36.72;;;17.38;;
22557;SDS011;11445;53.816;8.902;2023-12-04T03:21:54;35.20;;;17.63;;
22557;SDS011;11445;53.816;8.902;2023-12-04T03:24:20;36.45;;;17.52;;
22557;SDS011;11445;53.816;8.902;2023-12-04T03:26:47;35.88;;;17.00;;
22557;SDS011;11445;53.816;8.902;2023-12-04T03:29:14;36.50;;;17.70;;
22557;SDS011;11445;53.816;8.902;2023-12-04T03:31:41;32.00;;;16.52;;
22557;SDS011;11445;53.816;8.902;2023-12-04T03:34:09;37.05;;;17.98;;
22557;SDS011;11445;53.816;8.902;2023-12-04T03:36:36;38.40;;;17.33;;
22557;SDS011;11445;53.816;8.902;2023-12-04T03:39:02;36.28;;;17.10;;
22557;SDS011;11445;53.816;8.902;2023-12-04T03:41:29;37.08;;;17.88;;
22557;SDS011;11445;53.816;8.902;2023-12-04T03:43:56;35.50;;;17.48;;
22557;SDS011;11445;53.816;8.902;2023-12-04T03:46:23;34.90;;;16.63;;
22557;SDS011;11445;53.816;8.902;2023-12-04T03:48:50;33.65;;;16.45;;
22557;SDS011;11445;53.816;8.902;2023-12-04T03:51:19;33.17;;;17.02;;
22557;SDS011;11445;53.816;8.902;2023-12-04T03:53:46;36.00;;;16.55;;
22557;SDS011;11445;53.816;8.902;2023-12-04T03:56:12;36.00;;;17.27;;
22557;SDS011;11445;53.816;8.902;2023-12-04T03:58:39;34.92;;;17.20;;
22557;SDS011;11445;53.816;8.902;2023-12-04T04:01:06;37.08;;;17.38;;
22557;SDS011;11445;53.816;8.902;2023-12-04T04:03:33;34.13;;;17.55;;
22557;SDS011;11445;53.816;8.902;2023-12-04T04:06:00;32.60;;;16.05;;
22557;SDS011;11445;53.816;8.902;2023-12-04T04:08:28;35.85;;;16.85;;
22557;SDS011;11445;53.816;8.902;2023-12-04T04:10:55;30.92;;;15.68;;
22557;SDS011;11445;53.816;8.902;2023-12-04T04:13:21;33.05;;;16.48;;
22557;SDS011;11445;53.816;8.902;2023-12-04T04:15:50;39.38;;;17.63;;
22557;SDS011;11445;53.816;8.902;2023-12-04T04:18:17;34.70;;;17.35;;
22557;SDS011;11445;53.816;8.902;2023-12-04T04:20:43;35.20;;;16.88;;
22557;SDS011;11445;53.816;8.902;2023-12-04T04:23:10;33.90;;;16.65;;
22557;SDS011;11445;53.816;8.902;2023-12-04T04:25:38;35.63;;;16.35;;
22557;SDS011;11445;53.816;8.902;2023-12-04T04:28:05;37.03;;;17.25;;
22557;SDS011;11445;53.816;8.902;2023-12-04T04:30:32;33.20;;;15.98;;
22557;SDS011;11445;53.816;8.902;2023-12-04T04:32:59;33.75;;;17.23;;
22557;SDS011;11445;53.816;8.902;2023-12-04T04:35:25;32.67;;;16.10;;
22557;SDS011;11445;53.816;8.902;2023-12-04T04:37:52;30.33;;;15.98;;
22557;SDS011;11445;53.816;8.902;2023-12-04T04:40:19;30.15;;;15.15;;
22557;SDS011;11445;53.816;8.902;2023-12-04T04:42:47;32.40;;;16.20;;
22557;SDS011;11445;53.816;8.902;2023-12-04T04:45:14;32.80;;;17.20;;
22557;SDS011;11445;53.816;8.902;2023-12-04T04:47:41;34.30;;;15.48;;
22557;SDS011;11445;53.816;8.902;2023-12-04T04:50:08;31.15;;;15.45;;
22557;SDS011;11445;53.816;8.902;2023-12-04T04:52:35;30.77;;;15.35;;
22557;SDS011;11445;53.816;8.902;2023-12-04T04:55:02;30.80;;;15.65;;
22557;SDS011;11445;53.816;8.902;2023-12-04T04:57:31;34.10;;;16.40;;
22557;SDS011;11445;53.816;8.902;2023-12-04T04:59:59;30.88;;;15.80;;
22557;SDS011;11445;53.816;8.902;2023-12-04T05:02:26;33.92;;;16.15;;
22557;SDS011;11445;53.816;8.902;2023-12-04T05:04:53;38.40;;;15.65;;
22557;SDS011;11445;53.816;8.902;2023-12-04T05:07:19;33.75;;;15.55;;
22557;SDS011;11445;53.816;8.902;2023-12-04T05:09:46;35.88;;;15.13;;
22557;SDS011;11445;53.816;8.902;2023-12-04T05:12:14;32.53;;;14.90;;
22557;SDS011;11445;53.816;8.902;2023-12-04T05:14:40;32.38;;;14.68;;
22557;SDS011;11445;53.816;8.902;2023-12-04T05:17:09;32.05;;;15.13;;
22557;SDS011;11445;53.816;8.902;2023-12-04T05:19:35;31.33;;;15.00;;
22557;SDS011;11445;53.816;8.902;2023-12-04T05:22:02;32.88;;;15.18;;
22557;SDS011;11445;53.816;8.902;2023-12-04T05:24:29;32.33;;;15.18;;
22557;SDS011;11445;53.816;8.902;2023-12-04T05:26:56;29.88;;;14.55;;
22557;SDS011;11445;53.816;8.902;2023-12-04T05:29:23;29.20;;;14.77;;
22557;SDS011;11445;53.816;8.902;2023-12-04T05:31:49;31.00;;;13.93;;
22557;SDS011;11445;53.816;8.902;2023-12-04T05:34:18;33.47;;;14.88;;
22557;SDS011;11445;53.816;8.902;2023-12-04T05:36:44;31.08;;;14.05;;
22557;SDS011;11445;53.816;8.902;2023-12-04T05:39:11;29.15;;;14.43;;
22557;SDS011;11445;53.816;8.902;2023-12-04T05:41:38;30.77;;;14.95;;
22557;SDS011;11445;53.816;8.902;2023-12-04T05:44:05;31.30;;;15.38;;
22557;SDS011;11445;53.816;8.902;2023-12-04T05:46:31;31.25;;;14.95;;
22557;SDS011;11445;53.816;8.902;2023-12-04T05:48:58;32.33;;;15.18;;
22557;SDS011;11445;53.816;8.902;2023-12-04T05:51:26;33.03;;;15.25;;
22557;SDS011;11445;53.816;8.902;2023-12-04T05:53:53;31.17;;;14.80;;
22557;SDS011;11445;53.816;8.902;2023-12-04T05:56:21;30.60;;;15.35;;
22557;SDS011;11445;53.816;8.902;2023-12-04T05:58:47;31.38;;;15.02;;
22557;SDS011;11445;53.816;8.902;2023-12-04T06:01:14;31.77;;;14.43;;
22557;SDS011;11445;53.816;8.902;2023-12-04T06:03:41;30.35;;;14.98;;
22557;SDS011;11445;53.816;8.902;2023-12-04T06:06:08;31.83;;;15.30;;
22557;SDS011;11445;53.816;8.902;2023-12-04T06:08:36;27.05;;;13.35;;
22557;SDS011;11445;53.816;8.902;2023-12-04T06:11:03;33.15;;;15.35;;
22557;SDS011;11445;53.816;8.902;2023-12-04T06:13:30;29.08;;;14.70;;
22557;SDS011;11445;53.816;8.902;2023-12-04T06:15:57;31.45;;;14.43;;
22557;SDS011;11445;53.816;8.902;2023-12-04T06:18:24;27.90;;;14.00;;
22557;SDS011;11445;53.816;8.902;2023-12-04T06:20:51;33.78;;;15.55;;
22557;SDS011;11445;53.816;8.902;2023-12-04T06:23:18;27.92;;;14.10;;
22557;SDS011;11445;53.816;8.902;2023-12-04T06:25:47;26.35;;;13.32;;
22557;SDS011;11445;53.816;8.902;2023-12-04T06:28:14;31.52;;;14.70;;
22557;SDS011;11445;53.816;8.902;2023-12-04T06:30:41;26.60;;;13.45;;
22557;SDS011;11445;53.816;8.902;2023-12-04T06:33:09;25.30;;;13.30;;
22557;SDS011;11445;53.816;8.902;2023-12-04T06:35:38;29.65;;;13.18;;
22557;SDS011;11445;53.816;8.902;2023-12-04T06:38:05;27.92;;;13.55;;
22557;SDS011;11445;53.816;8.902;2023-12-04T06:40:33;35.58;;;10.88;;
22557;SDS011;11445;53.816;8.902;2023-12-04T06:43:02;31.35;;;14.13;;
22557;SDS011;11445;53.816;8.902;2023-12-04T06:45:30;29.52;;;13.35;;
22557;SDS011;11445;53.816;8.902;2023-12-04T06:47:58;28.90;;;13.50;;
22557;SDS011;11445;53.816;8.902;2023-12-04T06:50:25;30.85;;;14.48;;
22557;SDS011;11445;53.816;8.902;2023-12-04T06:52:52;30.17;;;14.23;;
22557;SDS011;11445;53.816;8.902;2023-12-04T06:55:19;29.00;;;13.45;;
22557;SDS011;11445;53.816;8.902;2023-12-04T06:57:46;25.23;;;13.32;;
22557;SDS011;11445;53.816;8.902;2023-12-04T07:00:15;28.13;;;13.50;;
22557;SDS011;11445;53.816;8.902;2023-12-04T07:02:42;24.55;;;12.95;;
22557;SDS011;11445;53.816;8.902;2023-12-04T07:05:09;26.23;;;13.38;;
22557;SDS011;11445;53.816;8.902;2023-12-04T07:07:36;28.17;;;13.45;;
22557;SDS011;11445;53.816;8.902;2023-12-04T07:10:03;26.95;;;12.98;;
22557;SDS011;11445;53.816;8.902;2023-12-04T07:12:30;27.63;;;13.77;;
22557;SDS011;11445;53.816;8.902;2023-12-04T07:14:57;28.85;;;13.45;;
22557;SDS011;11445;53.816;8.902;2023-12-04T07:17:26;26.95;;;13.48;;
22557;SDS011;11445;53.816;8.902;2023-12-04T07:19:52;26.10;;;13.15;;
22557;SDS011;11445;53.816;8.902;2023-12-04T07:22:19;26.45;;;13.95;;
22557;SDS011;11445;53.816;8.902;2023-12-04T07:24:46;30.50;;;13.63;;
22557;SDS011;11445;53.816;8.902;2023-12-04T07:27:13;29.50;;;13.40;;
22557;SDS011;11445;53.816;8.902;2023-12-04T07:29:41;25.35;;;13.88;;
22557;SDS011;11445;53.816;8.902;2023-12-04T07:32:08;26.48;;;12.48;;
22557;SDS011;11445;53.816;8.902;2023-12-04T07:34:36;27.65;;;13.00;;
22557;SDS011;11445;53.816;8.902;2023-12-04T07:37:03;29.63;;;14.20;;
22557;SDS011;11445;53.816;8.902;2023-12-04T07:39:30;27.95;;;13.75;;
22557;SDS011;11445;53.816;8.902;2023-12-04T07:41:57;28.42;;;14.02;;
22557;SDS011;11445;53.816;8.902;2023-12-04T07:44:23;27.05;;;13.15;;
22557;SDS011;11445;53.816;8.902;2023-12-04T07:46:50;28.20;;;13.32;;
22557;SDS011;11445;53.816;8.902;2023-12-04T07:49:17;28.67;;;13.55;;
22557;SDS011;11445;53.816;8.902;2023-12-04T07:51:45;29.80;;;13.55;;
22557;SDS011;11445;53.816;8.902;2023-12-04T07:54:12;26.48;;;13.52;;
22557;SDS011;11445;53.816;8.902;2023-12-04T07:56:39;27.05;;;13.80;;
22557;SDS011;11445;53.816;8.902;2023-12-04T07:59:07;27.60;;;13.30;;
22557;SDS011;11445;53.816;8.902;2023-12-04T08:01:34;27.73;;;13.93;;
22557;SDS011;11445;53.816;8.902;2023-12-04T08:04:01;32.50;;;13.48;;
22557;SDS011;11445;53.816;8.902;2023-12-04T08:06:28;30.90;;;13.88;;
22557;SDS011;11445;53.816;8.902;2023-12-04T08:08:57;26.33;;;13.15;;
22557;SDS011;11445;53.816;8.902;2023-12-04T08:11:24;30.05;;;13.93;;
22557;SDS011;11445;53.816;8.902;2023-12-04T08:13:51;31.05;;;14.02;;
22557;SDS011;11445;53.816;8.902;2023-12-04T08:16:17;33.20;;;15.50;;
22557;SDS011;11445;53.816;8.902;2023-12-04T08:18:45;25.67;;;13.60;;
22557;SDS011;11445;53.816;8.902;2023-12-04T08:21:12;26.90;;;13.68;;
22557;SDS011;11445;53.816;8.902;2023-12-04T08:23:39;28.48;;;13.82;;
22557;SDS011;11445;53.816;8.902;2023-12-04T08:26:07;30.88;;;13.65;;
22557;SDS011;11445;53.816;8.902;2023-12-04T08:28:34;32.38;;;13.88;;
22557;SDS011;11445;53.816;8.902;2023-12-04T08:31:02;29.25;;;14.60;;
22557;SDS011;11445;53.816;8.902;2023-12-04T08:33:29;28.85;;;13.93;;
22557;SDS011;11445;53.816;8.902;2023-12-04T08:35:56;29.33;;;14.85;;
22557;SDS011;11445;53.816;8.902;2023-12-04T08:38:23;30.20;;;14.70;;
22557;SDS011;11445;53.816;8.902;2023-12-04T08:40:50;34.60;;;14.98;;
22557;SDS011;11445;53.816;8.902;2023-12-04T08:43:18;27.55;;;13.95;;
22557;SDS011;11445;53.816;8.902;2023-12-04T08:45:45;29.40;;;14.70;;
22557;SDS011;11445;53.816;8.902;2023-12-04T08:48:12;30.55;;;14.40;;
22557;SDS011;11445;53.816;8.902;2023-12-04T08:50:39;26.60;;;13.75;;
22557;SDS011;11445;53.816;8.902;2023-12-04T08:53:06;30.80;;;13.95;;
22557;SDS011;11445;53.816;8.902;2023-12-04T08:55:33;29.75;;;14.43;;
22557;SDS011;11445;53.816;8.902;2023-12-04T08:58:00;27.75;;;13.68;;
22557;SDS011;11445;53.816;8.902;2023-12-04T09:00:28;28.10;;;14.05;;
22557;SDS011;11445;53.816;8.902;2023-12-04T09:02:55;26.33;;;13.30;;
22557;SDS011;11445;53.816;8.902;2023-12-04T09:05:21;32.95;;;15.52;;
22557;SDS011;11445;53.816;8.902;2023-12-04T09:07:48;30.65;;;14.30;;
22557;SDS011;11445;53.816;8.902;2023-12-04T09:10:15;30.38;;;14.02;;
22557;SDS011;11445;53.816;8.902;2023-12-04T09:12:43;33.55;;;15.38;;
22557;SDS011;11445;53.816;8.902;2023-12-04T09:15:10;32.58;;;14.38;;
22557;SDS011;11445;53.816;8.902;2023-12-04T09:17:39;35.10;;;15.35;;
22557;SDS011;11445;53.816;8.902;2023-12-04T09:20:06;28.65;;;13.63;;
22557;SDS011;11445;53.816;8.902;2023-12-04T09:22:34;29.33;;;13.82;;
22557;SDS011;11445;53.816;8.902;2023-12-04T09:25:03;32.45;;;14.73;;
22557;SDS011;11445;53.816;8.902;2023-12-04T09:27:30;28.50;;;14.40;;
22557;SDS011;11445;53.816;8.902;2023-12-04T09:29:58;30.00;;;14.52;;
22557;SDS011;11445;53.816;8.902;2023-12-04T09:32:24;27.63;;;14.05;;
22557;SDS011;11445;53.816;8.902;2023-12-04T09:34:53;30.33;;;12.80;;
22557;SDS011;11445;53.816;8.902;2023-12-04T09:37:19;27.63;;;14.00;;
22557;SDS011;11445;53.816;8.902;2023-12-04T09:39:46;30.23;;;14.25;;
22557;SDS011;11445;53.816;8.902;2023-12-04T09:42:14;30.75;;;14.48;;
22557;SDS011;11445;53.816;8.902;2023-12-04T09:44:43;30.70;;;13.27;;
22557;SDS011;11445;53.816;8.902;2023-12-04T09:47:11;25.92;;;13.48;;
22557;SDS011;11445;53.816;8.902;2023-12-04T09:49:38;25.85;;;13.68;;
22557;SDS011;11445;53.816;8.902;2023-12-04T09:52:06;26.63;;;13.75;;
22557;SDS011;11445;53.816;8.902;2023-12-04T09:54:33;26.85;;;13.50;;
22557;SDS011;11445;53.816;8.902;2023-12-04T09:57:02;29.58;;;13.60;;
22557;SDS011;11445;53.816;8.902;2023-12-04T09:59:30;26.77;;;12.90;;
22557;SDS011;11445;53.816;8.902;2023-12-04T10:01:57;27.67;;;14.00;;
22557;SDS011;11445;53.816;8.902;2023-12-04T10:04:25;25.60;;;12.77;;
22557;SDS011;11445;53.816;8.902;2023-12-04T10:06:52;28.27;;;14.05;;
22557;SDS011;11445;53.816;8.902;2023-12-04T10:09:20;28.48;;;13.85;;
22557;SDS011;11445;53.816;8.902;2023-12-04T10:11:50;31.77;;;14.75;;
22557;SDS011;11445;53.816;8.902;2023-12-04T10:14:18;24.00;;;11.98;;
22557;SDS011;11445;53.816;8.902;2023-12-04T10:16:45;24.33;;;12.55;;
22557;SDS011;11445;53.816;8.902;2023-12-04T10:19:16;22.73;;;12.52;;
22557;SDS011;11445;53.816;8.902;2023-12-04T10:21:45;27.40;;;12.52;;
22557;SDS011;11445;53.816;8.902;2023-12-04T10:24:13;34.03;;;10.85;;
22557;SDS011;11445;53.816;8.902;2023-12-04T10:26:56;25.33;;;13.10;;
22557;SDS011;11445;53.816;8.902;2023-12-04T10:29:23;24.02;;;13.43;;
22557;SDS011;11445;53.816;8.902;2023-12-04T10:31:52;26.42;;;13.40;;
22557;SDS011;11445;53.816;8.902;2023-12-04T10:34:21;27.77;;;14.45;;
22557;SDS011;11445;53.816;8.902;2023-12-04T10:36:51;22.13;;;11.77;;
22557;SDS011;11445;53.816;8.902;2023-12-04T10:39:18;23.35;;;12.20;;
22557;SDS011;11445;53.816;8.902;2023-12-04T10:41:46;22.05;;;11.55;;
22557;SDS011;11445;53.816;8.902;2023-12-04T10:44:26;21.63;;;11.73;;
22557;SDS011;11445;53.816;8.902;2023-12-04T10:46:53;26.38;;;12.85;;
22557;SDS011;11445;53.816;8.902;2023-12-04T10:49:23;21.48;;;12.18;;
22557;SDS011;11445;53.816;8.902;2023-12-04T10:51:53;24.38;;;12.63;;
22557;SDS011;11445;53.816;8.902;2023-12-04T10:54:21;22.75;;;11.63;;
22557;SDS011;11445;53.816;8.902;2023-12-04T10:56:50;25.25;;;11.82;;
22557;SDS011;11445;53.816;8.902;2023-12-04T10:59:18;19.35;;;11.05;;
22557;SDS011;11445;53.816;8.902;2023-12-04T11:01:52;22.98;;;11.85;;
22557;SDS011;11445;53.816;8.902;2023-12-04T11:04:22;20.45;;;11.73;;
22557;SDS011;11445;53.816;8.902;2023-12-04T11:06:52;22.60;;;11.98;;
22557;SDS011;11445;53.816;8.902;2023-12-04T11:09:20;22.40;;;12.52;;
22557;SDS011;11445;53.816;8.902;2023-12-04T11:11:53;22.38;;;12.20;;
22557;SDS011;11445;53.816;8.902;2023-12-04T11:14:27;23.33;;;11.88;;
22557;SDS011;11445;53.816;8.902;2023-12-04T11:17:02;21.65;;;10.95;;
22557;SDS011;11445;53.816;8.902;2023-12-04T11:19:35;20.75;;;11.48;;
22557;SDS011;11445;53.816;8.902;2023-12-04T11:22:05;22.90;;;12.02;;
22557;SDS011;11445;53.816;8.902;2023-12-04T11:24:33;20.90;;;11.70;;
22557;SDS011;11445;53.816;8.902;2023-12-04T11:27:03;19.13;;;10.75;;
22557;SDS011;11445;53.816;8.902;2023-12-04T11:29:30;23.35;;;11.70;;
22557;SDS011;11445;53.816;8.902;2023-12-04T11:31:58;22.45;;;11.65;;
22557;SDS011;11445;53.816;8.902;2023-12-04T11:34:25;23.98;;;12.02;;
22557;SDS011;11445;53.816;8.902;2023-12-04T11:36:51;19.45;;;11.52;;
22557;SDS011;11445;53.816;8.902;2023-12-04T11:39:21;19.83;;;10.80;;
22557;SDS011;11445;53.816;8.902;2023-12-04T11:41:48;21.85;;;11.95;;
22557;SDS011;11445;53.816;8.902;2023-12-04T11:44:17;19.95;;;11.25;;
22557;SDS011;11445;53.816;8.902;2023-12-04T11:46:58;20.73;;;11.82;;
22557;SDS011;11445;53.816;8.902;2023-12-04T11:49:29;22.88;;;11.73;;
22557;SDS011;11445;53.816;8.902;2023-12-04T11:51:57;21.90;;;11.07;;
22557;SDS011;11445;53.816;8.902;2023-12-04T11:54:25;18.73;;;10.30;;
22557;SDS011;11445;53.816;8.902;2023-12-04T11:56:57;19.75;;;11.00;;
22557;SDS011;11445;53.816;8.902;2023-12-04T11:59:46;22.58;;;10.93;;
22557;SDS011;11445;53.816;8.902;2023-12-04T12:02:14;22.30;;;11.32;;
22557;SDS011;11445;53.816;8.902;2023-12-04T12:04:42;20.33;;;10.70;;
22557;SDS011;11445;53.816;8.902;2023-12-04T12:07:10;24.40;;;10.65;;
22557;SDS011;11445;53.816;8.902;2023-12-04T12:09:37;19.98;;;10.93;;
22557;SDS011;11445;53.816;8.902;2023-12-04T12:12:05;18.52;;;10.70;;
22557;SDS011;11445;53.816;8.902;2023-12-04T12:14:33;21.30;;;10.73;;
22557;SDS011;11445;53.816;8.902;2023-12-04T12:17:01;19.52;;;10.98;;
22557;SDS011;11445;53.816;8.902;2023-12-04T12:19:28;21.77;;;11.10;;
22557;SDS011;11445;53.816;8.902;2023-12-04T12:21:54;19.15;;;10.60;;
22557;SDS011;11445;53.816;8.902;2023-12-04T12:24:22;18.02;;;10.30;;
22557;SDS011;11445;53.816;8.902;2023-12-04T12:26:50;21.02;;;11.35;;
22557;SDS011;11445;53.816;8.902;2023-12-04T12:29:17;18.45;;;10.40;;
22557;SDS011;11445;53.816;8.902;2023-12-04T12:31:44;18.98;;;10.65;;
22557;SDS011;11445;53.816;8.902;2023-12-04T12:34:12;19.02;;;10.50;;
22557;SDS011;11445;53.816;8.902;2023-12-04T12:36:40;26.88;;;11.27;;
22557;SDS011;11445;53.816;8.902;2023-12-04T12:39:07;19.33;;;10.93;;
22557;SDS011;11445;53.816;8.902;2023-12-04T12:41:34;20.35;;;10.35;;
22557;SDS011;11445;53.816;8.902;2023-12-04T12:44:01;17.38;;;9.85;;
22557;SDS011;11445;53.816;8.902;2023-12-04T12:46:28;21.73;;;10.23;;
22557;SDS011;11445;53.816;8.902;2023-12-04T12:48:55;17.20;;;9.63;;
22557;SDS011;11445;53.816;8.902;2023-12-04T12:51:25;21.83;;;11.18;;
22557;SDS011;11445;53.816;8.902;2023-12-04T12:53:52;18.90;;;10.65;;
22557;SDS011;11445;53.816;8.902;2023-12-04T12:56:19;19.33;;;10.85;;
22557;SDS011;11445;53.816;8.902;2023-12-04T12:58:46;19.10;;;10.15;;
22557;SDS011;11445;53.816;8.902;2023-12-04T13:01:13;18.92;;;10.07;;
22557;SDS011;11445;53.816;8.902;2023-12-04T13:03:40;20.40;;;11.32;;
22557;SDS011;11445;53.816;8.902;2023-12-04T13:06:11;18.83;;;11.07;;
22557;SDS011;11445;53.816;8.902;2023-12-04T13:08:39;18.38;;;10.23;;
22557;SDS011;11445;53.816;8.902;2023-12-04T13:11:06;21.70;;;10.40;;
22557;SDS011;11445;53.816;8.902;2023-12-04T13:13:33;20.20;;;10.82;;
22557;SDS011;11445;53.816;8.902;2023-12-04T13:16:00;20.40;;;10.00;;
22557;SDS011;11445;53.816;8.902;2023-12-04T13:18:27;16.63;;;9.65;;
22557;SDS011;11445;53.816;8.902;2023-12-04T13:20:56;19.23;;;10.93;;
22557;SDS011;11445;53.816;8.902;2023-12-04T13:23:23;23.60;;;11.00;;
22557;SDS011;11445;53.816;8.902;2023-12-04T13:25:51;21.88;;;10.98;;
22557;SDS011;11445;53.816;8.902;2023-12-04T13:28:19;15.48;;;7.88;;
22557;SDS011;11445;53.816;8.902;2023-12-04T13:30:46;24.05;;;11.88;;
22557;SDS011;11445;53.816;8.902;2023-12-04T13:33:13;20.00;;;10.73;;
22557;SDS011;11445;53.816;8.902;2023-12-04T13:35:40;17.35;;;9.80;;
22557;SDS011;11445;53.816;8.902;2023-12-04T13:38:07;20.30;;;10.75;;
22557;SDS011;11445;53.816;8.902;2023-12-04T13:40:38;22.17;;;10.02;;
22557;SDS011;11445;53.816;8.902;2023-12-04T13:43:06;20.90;;;10.57;;
22557;SDS011;11445;53.816;8.902;2023-12-04T13:45:51;19.05;;;11.02;;
22557;SDS011;11445;53.816;8.902;2023-12-04T13:48:18;23.35;;;12.45;;
22557;SDS011;11445;53.816;8.902;2023-12-04T13:50:46;22.85;;;11.82;;
22557;SDS011;11445;53.816;8.902;2023-12-04T13:53:15;20.40;;;11.05;;
22557;SDS011;11445;53.816;8.902;2023-12-04T13:55:46;22.25;;;11.32;;
22557;SDS011;11445;53.816;8.902;2023-12-04T13:58:35;22.33;;;11.85;;
22557;SDS011;11445;53.816;8.902;2023-12-04T14:01:09;23.30;;;12.35;;
22557;SDS011;11445;53.816;8.902;2023-12-04T14:03:39;22.92;;;11.48;;
22557;SDS011;11445;53.816;8.902;2023-12-04T14:06:06;20.27;;;11.20;;
22557;SDS011;11445;53.816;8.902;2023-12-04T14:08:34;23.63;;;11.73;;
22557;SDS011;11445;53.816;8.902;2023-12-04T14:11:01;21.08;;;10.35;;
22557;SDS011;11445;53.816;8.902;2023-12-04T14:13:28;25.90;;;11.10;;
22557;SDS011;11445;53.816;8.902;2023-12-04T14:15:57;22.35;;;11.25;;
22557;SDS011;11445;53.816;8.902;2023-12-04T14:18:24;24.20;;;12.18;;
22557;SDS011;11445;53.816;8.902;2023-12-04T14:20:51;19.60;;;10.38;;
22557;SDS011;11445;53.816;8.902;2023-12-04T14:23:17;22.25;;;11.60;;